Time;durP1;ratioP1;P1;durP2;ratioP2;P2;SDS_P1;SDS_P2;PMS_P1;PMS_P2;Temp;Humidity;BMP_temperature;BMP_pressure;BME280_temperature;BME280_humidity;BME280_pressure;Samples;Min_cycle;Max_cycle;Signal;HPM_P1;HPM_P2
2021/08/25 00:02:09;;;;;;;0.68;0.10;;;;;;;;;;5031983;28;20051;-70
2021/08/25 00:04:41;;;;;;;1.55;0.20;;;;;;;;;;5010327;28;20041;-69
2021/08/25 00:07:08;;;;;;;1.88;0.20;;;;;;;;;;5031176;28;20048;-70
2021/08/25 00:09:39;;;;;;;1.13;0.10;;;;;;;;;;5013421;28;20068;-69
2021/08/25 00:12:07;;;;;;;0.52;0.10;;;;;;;;;;5030305;28;20057;-70
2021/08/25 00:14:38;;;;;;;3.20;0.35;;;;;;;;;;5012211;28;20508;-71
2021/08/25 00:17:05;;;;;;;1.05;0.05;;;;;;;;;;5015138;28;20099;-70
2021/08/25 00:19:33;;;;;;;0.80;0.10;;;;;;;;;;5031078;28;20041;-70
2021/08/25 00:22:00;;;;;;;2.80;0.30;;;;;;;;;;5014281;28;20041;-70
2021/08/25 00:24:27;;;;;;;2.05;0.15;;;;;;;;;;5029611;28;20037;-70
2021/08/25 00:26:54;;;;;;;0.65;0.30;;;;;;;;;;5008027;28;20606;-71
2021/08/25 00:29:21;;;;;;;1.17;0.17;;;;;;;;;;5032875;28;20025;-71
2021/08/25 00:31:49;;;;;;;2.00;0.20;;;;;;;;;;5028966;28;20183;-69
2021/08/25 00:34:16;;;;;;;1.30;0.22;;;;;;;;;;5021241;28;20022;-69
2021/08/25 00:36:43;;;;;;;1.10;0.20;;;;;;;;;;5031726;28;20055;-70
2021/08/25 00:39:10;;;;;;;0.63;0.10;;;;;;;;;;5016531;28;20112;-71
2021/08/25 00:41:38;;;;;;;0.60;0.15;;;;;;;;;;4995053;28;20038;-70
2021/08/25 00:44:05;;;;;;;1.13;0.10;;;;;;;;;;5009624;28;20044;-69
2021/08/25 00:46:33;;;;;;;1.48;0.20;;;;;;;;;;5033103;28;20394;-69
2021/08/25 00:49:00;;;;;;;1.80;0.30;;;;;;;;;;5021373;28;20042;-71
2021/08/25 00:51:28;;;;;;;2.50;0.20;;;;;;;;;;5031649;28;20048;-71
2021/08/25 00:53:55;;;;;;;1.13;0.10;;;;;;;;;;5028320;28;20038;-71
2021/08/25 00:56:22;;;;;;;0.75;0.32;;;;;;;;;;5031762;28;20033;-71
2021/08/25 00:58:51;;;;;;;2.15;0.10;;;;;;;;;;5025826;28;22754;-71
2021/08/25 01:01:38;;;;;;;0.60;0.08;;;;;;;;;;5032470;28;20032;-70
2021/08/25 01:04:13;;;;;;;1.27;0.35;;;;;;;;;;5004952;28;20120;-70
2021/08/25 01:06:41;;;;;;;0.38;0.10;;;;;;;;;;5030782;28;20026;-69
2021/08/25 01:09:08;;;;;;;1.00;0.10;;;;;;;;;;5028105;28;20510;-70
2021/08/25 01:11:35;;;;;;;0.52;0.32;;;;;;;;;;5027903;28;20037;-70
2021/08/25 01:14:03;;;;;;;1.17;0.10;;;;;;;;;;4991021;28;20061;-68
2021/08/25 01:16:30;;;;;;;1.38;0.10;;;;;;;;;;5013091;28;20119;-69
2021/08/25 01:18:58;;;;;;;0.82;0.20;;;;;;;;;;5026814;28;20084;-70
2021/08/25 01:21:27;;;;;;;0.43;0.00;;;;;;;;;;5012171;28;20034;-70
2021/08/25 01:23:54;;;;;;;3.05;0.20;;;;;;;;;;4994458;28;20104;-69
2021/08/25 01:26:22;;;;;;;1.00;0.10;;;;;;;;;;5030447;28;20041;-70
2021/08/25 01:28:50;;;;;;;1.65;0.10;;;;;;;;;;4999677;28;20049;-70
2021/08/25 01:31:23;;;;;;;0.28;0.00;;;;;;;;;;4992282;28;20032;-69
2021/08/25 01:33:51;;;;;;;2.60;0.10;;;;;;;;;;5028967;28;20079;-70
2021/08/25 01:36:19;;;;;;;1.45;0.10;;;;;;;;;;5028073;28;20458;-70
2021/08/25 01:38:49;;;;;;;0.40;0.10;;;;;;;;;;5015105;28;20379;-71
2021/08/25 01:41:18;;;;;;;0.68;0.10;;;;;;;;;;5031055;28;20036;-71
2021/08/25 01:43:45;;;;;;;1.17;0.20;;;;;;;;;;5010151;28;20045;-69
2021/08/25 01:46:22;;;;;;;0.30;0.10;;;;;;;;;;5026361;28;20033;-71
2021/08/25 01:48:49;;;;;;;0.55;0.15;;;;;;;;;;5008858;28;20518;-70
2021/08/25 01:51:17;;;;;;;1.75;0.20;;;;;;;;;;5028859;28;20038;-71
2021/08/25 01:53:44;;;;;;;0.00;0.00;;;;;;;;;;5032033;28;20092;-69
2021/08/25 01:56:11;;;;;;;0.70;0.00;;;;;;;;;;5016331;28;20079;-70
2021/08/25 01:58:39;;;;;;;1.60;0.70;;;;;;;;;;5038921;28;20116;-70
2021/08/25 02:01:07;;;;;;;4.13;0.47;;;;;;;;;;5035248;28;20041;-70
2021/08/25 02:03:34;;;;;;;1.70;0.20;;;;;;;;;;5028649;28;20046;-70
2021/08/25 02:06:01;;;;;;;0.75;0.20;;;;;;;;;;5035117;28;20508;-70
2021/08/25 02:08:28;;;;;;;1.25;0.15;;;;;;;;;;5037311;28;20041;-69
2021/08/25 02:10:55;;;;;;;0.77;0.38;;;;;;;;;;5033637;28;20037;-70
2021/08/25 02:13:22;;;;;;;1.27;0.32;;;;;;;;;;5016134;28;20119;-70
2021/08/25 02:15:49;;;;;;;3.13;1.10;;;;;;;;;;5031833;28;20390;-71
2021/08/25 02:18:16;;;;;;;0.95;0.10;;;;;;;;;;5033352;28;20029;-70
2021/08/25 02:20:44;;;;;;;3.30;1.27;;;;;;;;;;5032296;28;20037;-70
2021/08/25 02:23:11;;;;;;;2.70;1.10;;;;;;;;;;5034391;28;20029;-70
2021/08/25 02:25:38;;;;;;;0.88;0.20;;;;;;;;;;5012757;28;20044;-70
2021/08/25 02:28:06;;;;;;;0.82;0.38;;;;;;;;;;5032546;28;20057;-71
2021/08/25 02:30:33;;;;;;;0.73;0.30;;;;;;;;;;5031639;28;20316;-70
2021/08/25 02:33:01;;;;;;;0.55;0.20;;;;;;;;;;5033648;28;20140;-70
2021/08/25 02:35:28;;;;;;;1.35;0.20;;;;;;;;;;5034160;28;20132;-69
2021/08/25 02:37:55;;;;;;;1.88;0.50;;;;;;;;;;5037390;28;20116;-71
2021/08/25 02:40:22;;;;;;;1.15;0.25;;;;;;;;;;5030351;28;20045;-72
2021/08/25 02:42:49;;;;;;;2.45;0.17;;;;;;;;;;5032537;28;20104;-71
2021/08/25 02:45:16;;;;;;;1.02;0.20;;;;;;;;;;5033101;28;20367;-70
2021/08/25 02:47:44;;;;;;;1.70;0.28;;;;;;;;;;5032790;28;20046;-70
2021/08/25 02:50:11;;;;;;;0.80;0.20;;;;;;;;;;5030378;28;20106;-72
2021/08/25 02:52:38;;;;;;;1.05;0.10;;;;;;;;;;5031710;28;20502;-70
2021/08/25 02:55:05;;;;;;;1.65;0.25;;;;;;;;;;5032386;28;20052;-71
2021/08/25 02:57:33;;;;;;;1.83;0.10;;;;;;;;;;5032014;28;23047;-70
2021/08/25 03:00:00;;;;;;;1.42;0.20;;;;;;;;;;5036017;28;20041;-71
2021/08/25 03:02:27;;;;;;;0.38;0.05;;;;;;;;;;5045467;28;20090;-71
2021/08/25 03:04:54;;;;;;;0.70;0.10;;;;;;;;;;5019970;28;20045;-71
2021/08/25 03:07:21;;;;;;;0.30;0.10;;;;;;;;;;5035287;28;20030;-70
2021/08/25 03:09:48;;;;;;;1.45;0.17;;;;;;;;;;5038051;28;20048;-69
2021/08/25 03:12:16;;;;;;;1.40;0.10;;;;;;;;;;5027309;28;20036;-67
2021/08/25 03:14:43;;;;;;;0.30;0.10;;;;;;;;;;5038342;28;20037;-68
2021/08/25 03:17:13;;;;;;;0.55;0.10;;;;;;;;;;5035578;28;20037;-70
2021/08/25 03:19:40;;;;;;;1.20;0.25;;;;;;;;;;5031158;28;20034;-69
2021/08/25 03:22:07;;;;;;;3.42;0.20;;;;;;;;;;5042388;28;20029;-72
2021/08/25 03:24:34;;;;;;;0.82;0.10;;;;;;;;;;5022810;28;20026;-69
2021/08/25 03:27:02;;;;;;;1.95;0.10;;;;;;;;;;5031564;28;20034;-69
2021/08/25 03:29:29;;;;;;;0.30;0.10;;;;;;;;;;5029835;28;20458;-69
2021/08/25 03:31:56;;;;;;;2.55;0.20;;;;;;;;;;5031091;28;20060;-68
2021/08/25 03:34:23;;;;;;;1.00;0.10;;;;;;;;;;5009851;28;20073;-68
2021/08/25 03:36:51;;;;;;;2.15;0.10;;;;;;;;;;5032002;28;20454;-70
2021/08/25 03:39:19;;;;;;;0.75;0.10;;;;;;;;;;5029775;28;20486;-69
2021/08/25 03:41:46;;;;;;;0.30;0.03;;;;;;;;;;5002829;28;20038;-70
2021/08/25 03:44:13;;;;;;;0.57;0.45;;;;;;;;;;5014723;28;20033;-68
2021/08/25 03:46:40;;;;;;;1.65;0.10;;;;;;;;;;5023227;28;20033;-69
2021/08/25 03:49:07;;;;;;;0.32;0.10;;;;;;;;;;5032308;28;20038;-68
2021/08/25 03:51:34;;;;;;;0.35;0.10;;;;;;;;;;5036659;28;20030;-69
2021/08/25 03:54:01;;;;;;;0.80;0.20;;;;;;;;;;5032638;28;20418;-69
2021/08/25 03:56:29;;;;;;;0.85;0.10;;;;;;;;;;5032239;28;20038;-69
2021/08/25 03:58:56;;;;;;;0.75;0.13;;;;;;;;;;5032471;28;20483;-70
2021/08/25 04:01:23;;;;;;;1.15;0.10;;;;;;;;;;5035782;28;20025;-70
2021/08/25 04:03:50;;;;;;;0.50;0.10;;;;;;;;;;5036790;28;20478;-70
2021/08/25 04:06:17;;;;;;;1.85;0.30;;;;;;;;;;5031325;28;20820;-70
2021/08/25 04:08:44;;;;;;;0.70;0.00;;;;;;;;;;5029081;28;20065;-70
2021/08/25 04:11:11;;;;;;;0.30;0.10;;;;;;;;;;5030932;28;20033;-71
2021/08/25 04:13:39;;;;;;;0.40;0.10;;;;;;;;;;5030264;28;20060;-70
2021/08/25 04:16:06;;;;;;;0.40;0.03;;;;;;;;;;5027707;28;20033;-71
2021/08/25 04:18:33;;;;;;;0.45;0.20;;;;;;;;;;5030998;28;20033;-70
2021/08/25 04:21:00;;;;;;;0.30;0.03;;;;;;;;;;5027340;28;20040;-69
2021/08/25 04:23:27;;;;;;;0.47;0.13;;;;;;;;;;5029619;28;20043;-70
2021/08/25 04:25:55;;;;;;;1.40;0.10;;;;;;;;;;5028757;28;20034;-69
2021/08/25 04:28:22;;;;;;;0.90;0.10;;;;;;;;;;5032035;28;20034;-70
2021/08/25 04:30:49;;;;;;;0.35;0.00;;;;;;;;;;5026963;28;20053;-70
2021/08/25 04:33:16;;;;;;;0.35;0.00;;;;;;;;;;5011202;28;20053;-70
2021/08/25 04:35:43;;;;;;;0.47;0.20;;;;;;;;;;5029183;28;20512;-70
2021/08/25 04:38:20;;;;;;;0.00;0.00;;;;;;;;;;5054964;27;20425;-70
2021/08/25 04:40:47;;;;;;;0.63;0.10;;;;;;;;;;5055092;28;20063;-71
2021/08/25 04:43:14;;;;;;;0.15;0.00;;;;;;;;;;5052595;28;20040;-71
2021/08/25 04:45:41;;;;;;;1.25;0.20;;;;;;;;;;5051982;28;20489;-71
2021/08/25 04:48:08;;;;;;;0.32;0.00;;;;;;;;;;5051409;28;20032;-70
2021/08/25 04:50:35;;;;;;;2.25;0.20;;;;;;;;;;5054392;28;20021;-71
2021/08/25 04:53:07;;;;;;;0.88;0.05;;;;;;;;;;5058801;28;20070;-69
2021/08/25 04:55:38;;;;;;;2.50;0.10;;;;;;;;;;5053401;28;20028;-69
2021/08/25 04:58:05;;;;;;;0.20;0.00;;;;;;;;;;5048964;28;20108;-69
2021/08/25 05:00:32;;;;;;;0.63;0.10;;;;;;;;;;5048742;28;20017;-70
2021/08/25 05:02:59;;;;;;;0.90;0.10;;;;;;;;;;5053127;28;20039;-70
2021/08/25 05:05:26;;;;;;;1.13;0.10;;;;;;;;;;5049789;28;20175;-70
2021/08/25 05:07:53;;;;;;;1.67;0.20;;;;;;;;;;5048801;28;20108;-70
2021/08/25 05:10:21;;;;;;;0.35;0.10;;;;;;;;;;5050273;28;20028;-69
2021/08/25 05:12:48;;;;;;;1.55;0.10;;;;;;;;;;5053630;28;20083;-71
2021/08/25 05:15:15;;;;;;;0.10;0.08;;;;;;;;;;5056559;28;20017;-69
2021/08/25 05:17:42;;;;;;;0.77;0.08;;;;;;;;;;5046033;28;20025;-69
2021/08/25 05:20:09;;;;;;;0.50;0.20;;;;;;;;;;5053382;28;20458;-68
2021/08/25 05:22:37;;;;;;;0.30;0.10;;;;;;;;;;5047980;28;20029;-70
2021/08/25 05:25:05;;;;;;;1.08;0.17;;;;;;;;;;5059192;28;20029;-70
2021/08/25 05:27:32;;;;;;;1.73;0.20;;;;;;;;;;5057501;28;20029;-70
2021/08/25 05:29:59;;;;;;;0.95;0.30;;;;;;;;;;5051774;28;20060;-70
2021/08/25 05:32:26;;;;;;;0.82;0.03;;;;;;;;;;5047923;28;20021;-69
2021/08/25 05:34:53;;;;;;;0.93;0.20;;;;;;;;;;5053649;28;20386;-70
2021/08/25 05:37:20;;;;;;;0.40;0.20;;;;;;;;;;5062771;28;20041;-70
2021/08/25 05:39:48;;;;;;;1.65;0.38;;;;;;;;;;5055689;28;20025;-71
2021/08/25 05:42:15;;;;;;;0.28;0.10;;;;;;;;;;5050481;28;20036;-70
2021/08/25 05:44:42;;;;;;;3.10;0.25;;;;;;;;;;5051027;28;20110;-71
2021/08/25 05:47:09;;;;;;;0.50;0.25;;;;;;;;;;5051516;28;20502;-71
2021/08/25 05:49:37;;;;;;;0.80;0.13;;;;;;;;;;5034844;28;20029;-70
2021/08/25 05:52:04;;;;;;;0.40;0.10;;;;;;;;;;5047149;28;20052;-71
2021/08/25 05:54:31;;;;;;;0.50;0.00;;;;;;;;;;5045705;28;20024;-71
2021/08/25 05:56:58;;;;;;;0.35;0.10;;;;;;;;;;5034571;28;20103;-70
2021/08/25 05:59:25;;;;;;;0.20;0.00;;;;;;;;;;5039735;28;20032;-70
2021/08/25 06:01:53;;;;;;;0.57;0.08;;;;;;;;;;5046171;28;20026;-69
2021/08/25 06:04:20;;;;;;;0.15;0.03;;;;;;;;;;5039102;28;20044;-70
2021/08/25 06:06:47;;;;;;;1.20;0.20;;;;;;;;;;5035655;28;20108;-71
2021/08/25 06:09:14;;;;;;;0.63;0.10;;;;;;;;;;5040674;28;20064;-70
2021/08/25 06:11:42;;;;;;;0.57;0.10;;;;;;;;;;5033103;28;20056;-70
2021/08/25 06:14:10;;;;;;;0.63;0.10;;;;;;;;;;5039854;28;20047;-70
2021/08/25 06:16:38;;;;;;;0.65;0.10;;;;;;;;;;5045640;28;20029;-70
2021/08/25 06:19:06;;;;;;;3.30;0.10;;;;;;;;;;5037445;28;20557;-70
2021/08/25 06:21:33;;;;;;;1.73;0.10;;;;;;;;;;5035782;28;20057;-70
2021/08/25 06:24:00;;;;;;;1.00;0.10;;;;;;;;;;5032411;28;20826;-71
2021/08/25 06:26:28;;;;;;;0.30;0.17;;;;;;;;;;5053479;28;20025;-70
2021/08/25 06:28:55;;;;;;;0.50;0.10;;;;;;;;;;5036083;28;20065;-69
2021/08/25 06:31:22;;;;;;;1.25;0.10;;;;;;;;;;5034784;28;20029;-70
2021/08/25 06:33:49;;;;;;;0.63;0.20;;;;;;;;;;5033837;28;20022;-70
2021/08/25 06:36:17;;;;;;;0.50;0.15;;;;;;;;;;5037396;28;20132;-69
2021/08/25 06:38:44;;;;;;;1.95;0.55;;;;;;;;;;5046799;28;20021;-70
2021/08/25 06:41:11;;;;;;;1.40;0.40;;;;;;;;;;5053877;28;20024;-71
2021/08/25 06:43:38;;;;;;;0.85;0.10;;;;;;;;;;5052790;28;20028;-70
2021/08/25 06:46:05;;;;;;;0.43;0.05;;;;;;;;;;5043287;28;20359;-70
2021/08/25 06:48:33;;;;;;;0.93;0.10;;;;;;;;;;5039441;28;20385;-71
2021/08/25 06:51:00;;;;;;;0.55;0.10;;;;;;;;;;5036174;28;20037;-71
2021/08/25 06:53:29;;;;;;;0.38;0.20;;;;;;;;;;5046847;28;20025;-69
2021/08/25 06:55:56;;;;;;;0.40;0.10;;;;;;;;;;5043135;28;20127;-70
2021/08/25 06:58:27;;;;;;;1.40;0.30;;;;;;;;;;5036200;28;20025;-69
2021/08/25 07:00:58;;;;;;;1.15;0.05;;;;;;;;;;5039405;28;20014;-69
2021/08/25 07:03:25;;;;;;;1.23;0.20;;;;;;;;;;5041293;28;20025;-69
2021/08/25 07:05:52;;;;;;;0.10;0.10;;;;;;;;;;5036244;28;20029;-69
2021/08/25 07:08:19;;;;;;;0.52;0.15;;;;;;;;;;5053582;28;20024;-69
2021/08/25 07:10:46;;;;;;;1.13;0.10;;;;;;;;;;5045114;28;20025;-70
2021/08/25 07:13:13;;;;;;;1.58;0.17;;;;;;;;;;5050619;28;20114;-69
2021/08/25 07:15:40;;;;;;;1.67;0.40;;;;;;;;;;5039544;28;20062;-70
2021/08/25 07:18:08;;;;;;;1.20;0.28;;;;;;;;;;5033460;28;20055;-69
2021/08/25 07:20:35;;;;;;;1.13;0.25;;;;;;;;;;5037962;28;20433;-70
2021/08/25 07:23:02;;;;;;;1.30;0.40;;;;;;;;;;5032916;28;20152;-70
2021/08/25 07:25:29;;;;;;;1.48;0.65;;;;;;;;;;5036012;28;20025;-70
2021/08/25 07:27:56;;;;;;;1.17;0.30;;;;;;;;;;5033128;28;20504;-70
2021/08/25 07:30:23;;;;;;;1.35;0.20;;;;;;;;;;5033015;28;20049;-70
2021/08/25 07:32:50;;;;;;;1.48;0.50;;;;;;;;;;5039208;28;20452;-69
2021/08/25 07:35:17;;;;;;;0.60;0.22;;;;;;;;;;5052424;28;20025;-72
2021/08/25 07:37:44;;;;;;;1.13;0.40;;;;;;;;;;5052835;28;20052;-71
2021/08/25 07:40:12;;;;;;;0.65;0.25;;;;;;;;;;5045339;28;20059;-68
2021/08/25 07:42:39;;;;;;;0.93;0.35;;;;;;;;;;5032111;28;20033;-70
2021/08/25 07:45:06;;;;;;;2.70;0.32;;;;;;;;;;5042189;28;20116;-70
2021/08/25 07:47:34;;;;;;;0.85;0.35;;;;;;;;;;5031533;28;20083;-69
2021/08/25 07:50:01;;;;;;;1.50;0.70;;;;;;;;;;5032866;28;20025;-68
2021/08/25 07:52:28;;;;;;;2.42;0.40;;;;;;;;;;5039223;28;20017;-70
2021/08/25 07:54:55;;;;;;;3.38;0.80;;;;;;;;;;5038357;28;20030;-70
2021/08/25 07:57:22;;;;;;;1.60;0.70;;;;;;;;;;5032671;28;20474;-69
2021/08/25 07:59:49;;;;;;;2.33;0.30;;;;;;;;;;5031437;28;20038;-68
2021/08/25 08:02:16;;;;;;;1.52;0.75;;;;;;;;;;5032463;28;20028;-70
2021/08/25 08:04:43;;;;;;;0.90;0.40;;;;;;;;;;5043631;28;20028;-70
2021/08/25 08:07:10;;;;;;;1.45;0.40;;;;;;;;;;5036942;28;20381;-70
2021/08/25 08:09:39;;;;;;;3.90;1.38;;;;;;;;;;5041856;28;20417;-69
2021/08/25 08:12:06;;;;;;;0.43;0.22;;;;;;;;;;5036171;28;20072;-69
2021/08/25 08:14:33;;;;;;;2.05;0.40;;;;;;;;;;5041707;28;20037;-69
2021/08/25 08:17:03;;;;;;;1.02;0.20;;;;;;;;;;5050616;28;20037;-70
2021/08/25 08:19:30;;;;;;;0.75;0.20;;;;;;;;;;5042678;28;20032;-70
2021/08/25 08:21:59;;;;;;;1.73;0.35;;;;;;;;;;5040859;28;20021;-69
2021/08/25 08:24:26;;;;;;;0.75;0.28;;;;;;;;;;5043669;28;20107;-70
2021/08/25 08:26:54;;;;;;;1.25;0.57;;;;;;;;;;5035070;28;20087;-70
2021/08/25 08:29:21;;;;;;;0.73;0.43;;;;;;;;;;5031886;28;20170;-69
2021/08/25 08:31:48;;;;;;;1.17;0.50;;;;;;;;;;5031501;28;20414;-70
2021/08/25 08:34:15;;;;;;;0.90;0.52;;;;;;;;;;5045416;28;20030;-70
2021/08/25 08:36:42;;;;;;;0.73;0.20;;;;;;;;;;5035317;28;20127;-71
2021/08/25 08:39:10;;;;;;;2.28;0.50;;;;;;;;;;5033961;28;20044;-71
2021/08/25 08:41:39;;;;;;;0.95;0.35;;;;;;;;;;5041716;28;20026;-71
2021/08/25 08:44:10;;;;;;;1.30;0.20;;;;;;;;;;5034945;28;20033;-69
2021/08/25 08:46:39;;;;;;;1.02;0.40;;;;;;;;;;5037754;28;20029;-70
2021/08/25 08:49:08;;;;;;;2.28;0.28;;;;;;;;;;5033276;28;20067;-70
2021/08/25 08:51:37;;;;;;;0.68;0.30;;;;;;;;;;5032028;28;20617;-70
2021/08/25 08:54:05;;;;;;;1.75;0.20;;;;;;;;;;5032629;28;20028;-70
2021/08/25 08:56:33;;;;;;;0.80;0.40;;;;;;;;;;5037826;28;20040;-69
2021/08/25 08:59:00;;;;;;;1.63;0.40;;;;;;;;;;5032390;28;20024;-69
2021/08/25 09:01:28;;;;;;;3.83;0.47;;;;;;;;;;5040285;28;20013;-69
2021/08/25 09:03:55;;;;;;;1.90;0.30;;;;;;;;;;5044408;28;20505;-70
2021/08/25 09:06:42;;;;;;;2.03;0.50;;;;;;;;;;5033509;28;20040;-70
2021/08/25 09:09:10;;;;;;;3.78;0.40;;;;;;;;;;5030856;28;20022;-71
2021/08/25 09:11:48;;;;;;;1.65;0.50;;;;;;;;;;5047718;28;20029;-70
2021/08/25 09:14:15;;;;;;;2.08;0.30;;;;;;;;;;5036030;28;20474;-70
2021/08/25 09:16:42;;;;;;;0.90;0.30;;;;;;;;;;5031671;28;20029;-70
2021/08/25 09:19:17;;;;;;;0.77;0.28;;;;;;;;;;5031546;28;20026;-70
2021/08/25 09:21:45;;;;;;;1.63;0.20;;;;;;;;;;5036352;28;20350;-70
2021/08/25 09:24:13;;;;;;;2.67;0.80;;;;;;;;;;5039707;28;20068;-70
2021/08/25 09:26:58;;;;;;;3.20;0.50;;;;;;;;;;5039392;28;20021;-70
2021/08/25 09:29:26;;;;;;;1.05;0.30;;;;;;;;;;5042056;28;20068;-71
2021/08/25 09:31:53;;;;;;;1.15;0.43;;;;;;;;;;5034066;28;20104;-70
2021/08/25 09:34:26;;;;;;;0.70;0.30;;;;;;;;;;5036002;28;20078;-70
2021/08/25 09:37:06;;;;;;;0.93;0.30;;;;;;;;;;5034405;28;20523;-70
2021/08/25 09:39:33;;;;;;;1.13;0.40;;;;;;;;;;5036525;28;20033;-71
2021/08/25 09:42:04;;;;;;;1.20;0.30;;;;;;;;;;5043243;28;20029;-70
2021/08/25 09:44:34;;;;;;;1.80;0.50;;;;;;;;;;5041025;28;20017;-71
2021/08/25 09:47:01;;;;;;;1.30;0.50;;;;;;;;;;5034833;28;20040;-70
2021/08/25 09:49:29;;;;;;;1.75;0.47;;;;;;;;;;5038365;28;20386;-70
2021/08/25 09:51:56;;;;;;;2.53;0.40;;;;;;;;;;5039839;28;20118;-71
2021/08/25 09:54:23;;;;;;;2.25;0.57;;;;;;;;;;5044291;28;20367;-69
2021/08/25 09:56:54;;;;;;;1.17;0.35;;;;;;;;;;5051720;28;20056;-71
2021/08/25 09:59:22;;;;;;;0.85;0.57;;;;;;;;;;5042556;28;20040;-71
2021/08/25 10:01:50;;;;;;;2.20;0.50;;;;;;;;;;5036920;28;20040;-71
2021/08/25 10:04:18;;;;;;;1.38;0.45;;;;;;;;;;5046423;28;20612;-70
2021/08/25 10:06:46;;;;;;;1.92;0.60;;;;;;;;;;5034892;28;20482;-71
2021/08/25 10:09:14;;;;;;;1.30;0.40;;;;;;;;;;5042053;28;20055;-72
2021/08/25 10:11:43;;;;;;;4.05;1.38;;;;;;;;;;5047892;28;20029;-71
2021/08/25 10:14:11;;;;;;;2.05;0.98;;;;;;;;;;5035527;28;20022;-71
2021/08/25 10:16:44;;;;;;;1.58;0.60;;;;;;;;;;5045825;28;20477;-70
2021/08/25 10:19:30;;;;;;;3.20;1.10;;;;;;;;;;5038854;28;20030;-70
2021/08/25 10:22:01;;;;;;;2.30;0.90;;;;;;;;;;5036828;28;20052;-71
2021/08/25 10:24:28;;;;;;;1.67;0.70;;;;;;;;;;5052528;28;20371;-71
2021/08/25 10:26:58;;;;;;;2.90;0.77;;;;;;;;;;5040163;28;20035;-71
2021/08/25 10:29:26;;;;;;;1.25;0.50;;;;;;;;;;5045319;28;20101;-71
2021/08/25 10:31:56;;;;;;;1.52;0.63;;;;;;;;;;5034616;28;20033;-71
2021/08/25 10:34:25;;;;;;;2.30;0.93;;;;;;;;;;5033881;28;20044;-69
2021/08/25 10:36:52;;;;;;;1.88;0.47;;;;;;;;;;5034532;28;20383;-69
2021/08/25 10:39:33;;;;;;;1.35;0.40;;;;;;;;;;5033498;28;20029;-70
2021/08/25 10:42:01;;;;;;;1.13;0.50;;;;;;;;;;5041696;28;20017;-71
2021/08/25 10:44:40;;;;;;;1.33;0.40;;;;;;;;;;5040631;28;20031;-70
2021/08/25 10:47:11;;;;;;;2.50;0.50;;;;;;;;;;5044925;28;20025;-69
2021/08/25 10:49:39;;;;;;;2.22;0.50;;;;;;;;;;5033656;28;20031;-71
2021/08/25 10:52:15;;;;;;;1.35;0.50;;;;;;;;;;5043079;28;20128;-70
2021/08/25 10:54:49;;;;;;;2.45;0.63;;;;;;;;;;5042260;28;20041;-70
2021/08/25 10:57:17;;;;;;;2.58;0.50;;;;;;;;;;5039039;28;20055;-69
2021/08/25 10:59:44;;;;;;;1.20;0.50;;;;;;;;;;5039494;28;20029;-69
2021/08/25 11:02:12;;;;;;;1.98;0.50;;;;;;;;;;5033760;28;20393;-70
2021/08/25 11:04:39;;;;;;;1.77;0.70;;;;;;;;;;5033915;28;20113;-70
2021/08/25 11:07:10;;;;;;;1.42;0.57;;;;;;;;;;5033828;28;20025;-70
2021/08/25 11:09:38;;;;;;;2.35;0.60;;;;;;;;;;5033783;28;20493;-71
2021/08/25 11:12:12;;;;;;;2.97;0.60;;;;;;;;;;5034922;28;20432;-70
2021/08/25 11:14:45;;;;;;;1.23;0.52;;;;;;;;;;5033791;28;20474;-70
2021/08/25 11:17:14;;;;;;;1.50;0.52;;;;;;;;;;5042781;28;20619;-70
2021/08/25 11:19:42;;;;;;;1.38;0.52;;;;;;;;;;5039932;28;20017;-70
2021/08/25 11:22:14;;;;;;;1.85;0.68;;;;;;;;;;5039606;28;20033;-71
2021/08/25 11:24:44;;;;;;;1.02;0.50;;;;;;;;;;5036784;28;20107;-71
2021/08/25 11:27:37;;;;;;;2.97;0.43;;;;;;;;;;5037709;28;20112;-71
2021/08/25 11:30:12;;;;;;;1.40;0.50;;;;;;;;;;5041641;28;20449;-71
2021/08/25 11:32:49;;;;;;;0.57;0.30;;;;;;;;;;5042212;28;20056;-70
2021/08/25 11:35:22;;;;;;;1.67;0.85;;;;;;;;;;5047242;28;20036;-70
2021/08/25 11:37:49;;;;;;;2.03;0.80;;;;;;;;;;5039675;28;20367;-70
2021/08/25 11:40:17;;;;;;;2.25;1.00;;;;;;;;;;5033866;28;20033;-70
2021/08/25 11:42:44;;;;;;;2.10;0.70;;;;;;;;;;5036713;28;20347;-70
2021/08/25 11:45:18;;;;;;;1.45;0.40;;;;;;;;;;5040426;28;20113;-70
2021/08/25 11:47:53;;;;;;;1.20;0.90;;;;;;;;;;5037842;28;20363;-70
2021/08/25 11:50:21;;;;;;;2.50;0.77;;;;;;;;;;5042754;28;20058;-70
2021/08/25 11:52:48;;;;;;;3.83;0.90;;;;;;;;;;5038158;28;20044;-69
2021/08/25 11:55:15;;;;;;;2.35;0.77;;;;;;;;;;5035122;28;20017;-69
2021/08/25 11:57:44;;;;;;;4.20;1.38;;;;;;;;;;5045424;28;20025;-70
2021/08/25 12:00:12;;;;;;;3.78;1.15;;;;;;;;;;5033568;28;20026;-69
2021/08/25 12:03:05;;;;;;;4.72;1.40;;;;;;;;;;5044839;28;20029;-69
2021/08/25 12:05:34;;;;;;;5.05;1.20;;;;;;;;;;5045451;28;20051;-70
2021/08/25 12:08:06;;;;;;;2.38;1.20;;;;;;;;;;5039969;28;20044;-69
2021/08/25 12:10:33;;;;;;;3.53;1.50;;;;;;;;;;5047559;28;20057;-70
2021/08/25 12:13:00;;;;;;;2.40;1.10;;;;;;;;;;5048061;28;20148;-70
2021/08/25 12:15:44;;;;;;;3.60;1.20;;;;;;;;;;5032543;28;20558;-70
2021/08/25 12:18:11;;;;;;;3.70;0.88;;;;;;;;;;5039830;28;20037;-69
2021/08/25 12:20:39;;;;;;;1.85;0.95;;;;;;;;;;5044539;28;20033;-70
2021/08/25 12:23:07;;;;;;;3.53;1.60;;;;;;;;;;5040919;28;20064;-70
2021/08/25 12:25:44;;;;;;;2.70;1.00;;;;;;;;;;5032182;28;20026;-70
2021/08/25 12:28:12;;;;;;;3.10;0.93;;;;;;;;;;5051801;28;20032;-70
2021/08/25 12:30:42;;;;;;;7.10;1.52;;;;;;;;;;5051371;28;20029;-70
2021/08/25 12:33:15;;;;;;;4.47;0.95;;;;;;;;;;5050294;28;20555;-70
2021/08/25 12:35:42;;;;;;;5.53;1.60;;;;;;;;;;5048637;28;20021;-70
2021/08/25 12:38:09;;;;;;;4.35;1.23;;;;;;;;;;5032719;28;20045;-70
2021/08/25 12:40:36;;;;;;;6.18;1.27;;;;;;;;;;5050199;28;20035;-70
2021/08/25 12:43:04;;;;;;;6.25;1.63;;;;;;;;;;5050203;28;20021;-69
2021/08/25 12:45:31;;;;;;;4.00;0.98;;;;;;;;;;5041725;28;20065;-70
2021/08/25 12:47:58;;;;;;;7.30;1.38;;;;;;;;;;5031104;28;20124;-70
2021/08/25 12:50:26;;;;;;;3.90;1.05;;;;;;;;;;5031790;28;20037;-69
2021/08/25 12:52:53;;;;;;;2.70;0.93;;;;;;;;;;5036216;28;20056;-69
2021/08/25 12:55:21;;;;;;;6.65;0.80;;;;;;;;;;5042908;28;20021;-70
2021/08/25 12:57:48;;;;;;;1.65;0.70;;;;;;;;;;5051954;28;20029;-70
2021/08/25 13:00:15;;;;;;;2.42;0.90;;;;;;;;;;5038335;28;20442;-69
2021/08/25 13:02:42;;;;;;;4.90;0.95;;;;;;;;;;5035906;28;20095;-70
2021/08/25 13:05:13;;;;;;;1.38;0.70;;;;;;;;;;5049844;28;20044;-70
2021/08/25 13:07:41;;;;;;;2.80;1.00;;;;;;;;;;5054323;28;20176;-69
2021/08/25 13:10:08;;;;;;;2.83;0.68;;;;;;;;;;5052435;28;20025;-70
2021/08/25 13:12:36;;;;;;;5.72;0.90;;;;;;;;;;5056044;28;20634;-70
2021/08/25 13:15:03;;;;;;;1.58;0.70;;;;;;;;;;5045608;28;20160;-69
2021/08/25 13:17:30;;;;;;;1.88;0.80;;;;;;;;;;5051478;28;20032;-69
2021/08/25 13:19:57;;;;;;;3.40;1.08;;;;;;;;;;5053715;28;20112;-69
2021/08/25 13:22:24;;;;;;;3.03;1.00;;;;;;;;;;5054158;28;20036;-70
2021/08/25 13:24:51;;;;;;;2.83;0.85;;;;;;;;;;5041138;28;20041;-70
2021/08/25 13:27:18;;;;;;;4.38;1.23;;;;;;;;;;5049038;28;20028;-70
2021/08/25 13:29:45;;;;;;;3.08;0.95;;;;;;;;;;5055602;28;20032;-70
2021/08/25 13:32:16;;;;;;;5.28;1.17;;;;;;;;;;5055747;28;20025;-69
2021/08/25 13:34:43;;;;;;;5.78;1.25;;;;;;;;;;5046724;28;20048;-70
2021/08/25 13:37:12;;;;;;;5.25;1.25;;;;;;;;;;5035523;28;20409;-69
2021/08/25 13:39:40;;;;;;;4.80;1.40;;;;;;;;;;5037032;28;20029;-69
2021/08/25 13:42:08;;;;;;;3.67;1.38;;;;;;;;;;5041909;28;20029;-69
2021/08/25 13:44:35;;;;;;;4.32;1.38;;;;;;;;;;5049719;28;20401;-69
2021/08/25 13:47:03;;;;;;;2.05;1.40;;;;;;;;;;5054689;28;20017;-69
2021/08/25 13:49:30;;;;;;;3.92;1.10;;;;;;;;;;5041063;28;20108;-69
2021/08/25 13:51:57;;;;;;;4.07;1.40;;;;;;;;;;5054834;28;20083;-70
2021/08/25 13:54:24;;;;;;;3.78;1.00;;;;;;;;;;5040569;28;20029;-69
2021/08/25 13:56:51;;;;;;;1.85;0.77;;;;;;;;;;5033854;28;20025;-70
2021/08/25 13:59:18;;;;;;;2.95;1.63;;;;;;;;;;5034976;28;20108;-69
2021/08/25 14:01:45;;;;;;;6.45;1.65;;;;;;;;;;5035704;28;20105;-70
2021/08/25 14:04:12;;;;;;;2.08;0.93;;;;;;;;;;5035134;28;20022;-69
2021/08/25 14:06:40;;;;;;;1.75;0.88;;;;;;;;;;5034524;28;20037;-70
2021/08/25 14:09:07;;;;;;;3.38;0.98;;;;;;;;;;5051852;28;20021;-70
2021/08/25 14:11:34;;;;;;;2.35;1.13;;;;;;;;;;5037283;28;20466;-70
2021/08/25 14:14:01;;;;;;;4.10;1.48;;;;;;;;;;5034631;28;20034;-70
2021/08/25 14:16:28;;;;;;;2.50;1.05;;;;;;;;;;5034753;28;20022;-70
2021/08/25 14:18:56;;;;;;;2.60;1.20;;;;;;;;;;5044918;28;20108;-69
2021/08/25 14:21:23;;;;;;;1.85;0.90;;;;;;;;;;5034616;28;20474;-69
2021/08/25 14:23:50;;;;;;;5.35;2.60;;;;;;;;;;5034211;28;20030;-69
2021/08/25 14:26:17;;;;;;;11.15;5.50;;;;;;;;;;5034215;28;20035;-69
2021/08/25 14:28:44;;;;;;;4.18;1.60;;;;;;;;;;5034187;28;20036;-69
2021/08/25 14:31:12;;;;;;;2.40;0.70;;;;;;;;;;5034408;28;20022;-69
2021/08/25 14:33:39;;;;;;;2.05;0.70;;;;;;;;;;5037520;28;20016;-69
2021/08/25 14:36:06;;;;;;;2.40;0.77;;;;;;;;;;5039749;28;20025;-69
2021/08/25 14:38:33;;;;;;;1.48;0.63;;;;;;;;;;5046749;28;20052;-70
2021/08/25 14:41:00;;;;;;;1.92;0.75;;;;;;;;;;5051845;28;20029;-69
2021/08/25 14:43:27;;;;;;;1.20;0.60;;;;;;;;;;5053884;28;20021;-69
2021/08/25 14:45:54;;;;;;;3.38;0.55;;;;;;;;;;5046551;28;20024;-70
2021/08/25 14:48:21;;;;;;;2.15;0.50;;;;;;;;;;5033820;28;20038;-70
2021/08/25 14:50:49;;;;;;;4.50;0.60;;;;;;;;;;5034835;28;20108;-70